Yankton, SD

04:34 CDT le 01 novembre 2014 (GMT -0500)
Gurney Municipal | Change Station
CLOSE
Current Station
Aéroport
Location: Yankton,
Altitude: 1306 ft
Stations météo à proximité
Avis météorologiques actifs: Special Statement Préavis actif: Record Report

Alt. 1306 ft 42.92 °N, 97.39 °W | Updated 19 minutes ago

Ciel dégagé
Ciel dégagé
28 ° F
Paraît 18 ° F
N
14
Vent Variable Vent de SE

Aujourd'hui
Haut(e) -- | Bas -- ° F
--% Risque de précip.
Hier
Haut(e) -- | Bas -- ° F
Precip. -- pouce
8:03 AM 6:21 PM
Lune gibbeuse croissante, 64% visible
Pression 30.34 pouce
Visibilité 10.0 Miles terrestres
Nuages Ciel dégagé
Refroidissement éolien 18 ° F
Point de rosée 18 ° F
Humidité 64%
Précipitations 0.00 pouce
Profondeur de la couche neigeuse Non disponible.
UV 0 sur 12
Pollen .10 sur 12
Qualité de l'air Non disponible.
Flu Activity Non disponible.
METAR KYKN 010915Z AUTO 14012KT 10SM CLR M02/M08 A3034 RMK AO1

More Conditions Fewer Conditions

Pression 30.34 pouce
Visibilité 10.0 Miles terrestres
Nuages Ciel dégagé
Refroidissement éolien 18 ° F
Point de rosée 18 ° F
Humidité 64%
Précipitations 0.00 pouce
Profondeur de la couche neigeuse Non disponible.
UV 0 sur 12
Pollen .10 sur 12
Qualité de l'air Non disponible.
Flu Activity Non disponible.
METAR KYKN 010915Z AUTO 14012KT 10SM CLR M02/M08 A3034 RMK AO1

More Conditions Fewer Conditions

10-Day Weather Forecast

Almanac

Astronomie

Nov. 01, 2014 Lever Coucher
Temps réel
Crépuscule civil
Crépuscule nautique
Crépuscule astronomique
Lune
Durée de lumière visible
Longueur du jour
Tomorrow will be .
, % of the Moon is Illuminated

Extrêmes aujourd'hui

State Highs State Lows

Community

WunderPhotos

Upload Photos

1,766,872 Photos téléchargées !

WunderBlogs® & News

Nearby

Qualité de l'air

  Qualité de l'air Indice de la qualité de l'air Polluant
Not available.

Épaisseur de neige

Station Depth Altitude

Activité sismique

Ville Distance Mag. Time & Date
Minimum magnitude displayed is 2.5.

Températures des eaux côtières

Lieu Température

Stations météo à proximité